createdAt,value
2017-12-05T00:01:04.839Z,4.70
2017-12-05T00:03:39.144Z,4.70
2017-12-05T00:06:13.486Z,4.70
2017-12-05T00:08:47.686Z,4.70
2017-12-05T00:11:21.906Z,4.70
2017-12-05T00:13:56.116Z,4.60
2017-12-05T00:16:30.397Z,4.60
2017-12-05T00:19:04.551Z,4.60
2017-12-05T00:21:38.769Z,4.60
2017-12-05T00:24:13.108Z,4.60
2017-12-05T00:26:47.359Z,4.60
2017-12-05T00:29:22.302Z,4.60
2017-12-05T00:31:56.630Z,4.50
2017-12-05T00:34:30.722Z,4.60
2017-12-05T00:37:05.027Z,4.50
2017-12-05T00:39:39.409Z,4.50
2017-12-05T00:42:13.512Z,4.50
2017-12-05T00:44:47.854Z,4.40
2017-12-05T00:47:22.035Z,4.40
2017-12-05T00:49:56.123Z,4.50
2017-12-05T00:52:30.364Z,4.40
2017-12-05T00:55:04.724Z,4.50
2017-12-05T00:57:39.018Z,4.60
2017-12-05T01:00:13.153Z,4.60
2017-12-05T01:02:47.351Z,4.60
2017-12-05T01:05:21.729Z,4.60
2017-12-05T01:07:56.089Z,4.70
2017-12-05T01:10:31.131Z,4.60
2017-12-05T01:13:05.397Z,4.60
2017-12-05T01:15:39.720Z,4.60
2017-12-05T01:18:14.024Z,4.60
2017-12-05T01:20:48.341Z,4.60
2017-12-05T01:23:22.509Z,4.70
2017-12-05T01:25:56.832Z,4.70
2017-12-05T01:28:31.730Z,4.70
2017-12-05T01:31:05.920Z,4.70
2017-12-05T01:33:40.837Z,4.60
2017-12-05T01:36:15.379Z,4.60
2017-12-05T01:38:49.441Z,4.70
2017-12-05T01:41:23.806Z,4.60
2017-12-05T01:43:57.909Z,4.70
2017-12-05T01:46:32.247Z,4.70
2017-12-05T01:49:06.442Z,4.70
2017-12-05T01:51:40.756Z,4.60
2017-12-05T01:54:15.136Z,4.60
2017-12-05T01:56:49.333Z,4.60
2017-12-05T01:59:23.581Z,4.70
2017-12-05T02:01:57.746Z,4.70
2017-12-05T02:04:32.042Z,4.70
2017-12-05T02:07:07.008Z,4.70
2017-12-05T02:09:41.136Z,4.70
2017-12-05T02:12:16.119Z,4.70
2017-12-05T02:14:51.132Z,4.70
2017-12-05T02:17:25.530Z,4.70
2017-12-05T02:19:59.617Z,4.70
2017-12-05T02:22:33.954Z,4.70
2017-12-05T02:25:08.237Z,4.70
2017-12-05T02:27:43.309Z,4.70
2017-12-05T02:30:17.613Z,4.60
2017-12-05T02:32:51.840Z,4.70
2017-12-05T02:35:26.725Z,4.70
2017-12-05T02:38:01.821Z,4.70
2017-12-05T02:40:47.906Z,4.70
2017-12-05T02:43:22.192Z,4.70
2017-12-05T02:45:57.206Z,4.80
2017-12-05T02:48:31.568Z,4.80
2017-12-05T02:51:05.921Z,4.80
2017-12-05T02:53:40.207Z,4.80
2017-12-05T02:56:15.394Z,4.80
2017-12-05T02:58:50.310Z,4.80
2017-12-05T03:01:24.558Z,4.80
2017-12-05T03:03:58.921Z,4.80
2017-12-05T03:06:33.079Z,4.80
2017-12-05T03:09:07.386Z,4.80
2017-12-05T03:11:42.391Z,4.80
2017-12-05T03:14:17.553Z,4.90
2017-12-05T03:16:51.878Z,4.80
2017-12-05T03:19:26.206Z,4.90
2017-12-05T03:22:00.439Z,4.90
2017-12-05T03:24:34.751Z,4.90
2017-12-05T03:27:09.690Z,4.90
2017-12-05T03:29:44.042Z,5.00
2017-12-05T03:32:18.355Z,4.90
2017-12-05T03:34:52.588Z,4.90
2017-12-05T03:37:26.881Z,4.90
2017-12-05T03:40:01.918Z,4.90
2017-12-05T03:42:36.167Z,4.90
2017-12-05T03:45:10.521Z,4.90
2017-12-05T03:47:44.639Z,4.90
2017-12-05T03:50:18.925Z,4.90
2017-12-05T03:52:53.239Z,5.00
2017-12-05T03:55:28.227Z,5.00
2017-12-05T03:58:02.389Z,4.90
2017-12-05T04:00:36.797Z,4.90
2017-12-05T04:03:10.954Z,4.90
2017-12-05T04:05:45.130Z,4.80
2017-12-05T04:08:20.007Z,4.80
2017-12-05T04:10:54.195Z,4.80
2017-12-05T04:13:28.352Z,4.80
2017-12-05T04:16:02.719Z,4.90
2017-12-05T04:18:37.738Z,4.90
2017-12-05T04:21:11.930Z,4.90
2017-12-05T04:23:46.237Z,4.90
2017-12-05T04:26:20.564Z,4.90
2017-12-05T04:28:54.879Z,4.90
2017-12-05T04:31:29.237Z,4.80
2017-12-05T04:34:03.477Z,4.80
2017-12-05T04:36:37.722Z,4.90
2017-12-05T04:39:11.849Z,4.90
2017-12-05T04:41:46.780Z,4.90
2017-12-05T04:44:20.967Z,4.90
2017-12-05T04:46:55.240Z,4.90
2017-12-05T04:49:29.524Z,4.90
2017-12-05T04:52:03.863Z,5.00
2017-12-05T04:54:37.954Z,5.00
2017-12-05T04:57:12.166Z,5.00
2017-12-05T04:59:46.497Z,4.90
2017-12-05T05:02:20.714Z,4.90
2017-12-05T05:04:55.772Z,4.90
2017-12-05T05:07:30.005Z,4.90
2017-12-05T05:10:04.186Z,5.00
2017-12-05T05:12:38.488Z,5.00
2017-12-05T05:15:12.618Z,5.00
2017-12-05T05:17:46.927Z,5.00
2017-12-05T05:20:21.233Z,5.00
2017-12-05T05:22:55.568Z,5.00
2017-12-05T05:25:29.669Z,5.00
2017-12-05T05:28:03.990Z,5.00
2017-12-05T05:30:38.157Z,5.00
2017-12-05T05:33:12.512Z,5.00
2017-12-05T05:35:46.686Z,5.00
2017-12-05T05:38:21.064Z,5.00
2017-12-05T05:40:55.265Z,5.00
2017-12-05T05:43:29.544Z,5.00
2017-12-05T05:46:03.732Z,5.00
2017-12-05T05:48:38.045Z,5.00
2017-12-05T05:51:13.064Z,5.00
2017-12-05T05:53:47.388Z,5.00
2017-12-05T05:56:21.580Z,4.90
2017-12-05T05:58:55.918Z,4.90
2017-12-05T06:01:30.054Z,5.00
2017-12-05T06:04:04.292Z,5.00
2017-12-05T06:06:38.566Z,5.00
2017-12-05T06:09:12.953Z,5.00
2017-12-05T06:11:47.040Z,5.00
2017-12-05T06:14:22.173Z,5.00
2017-12-05T06:16:56.341Z,5.00
2017-12-05T06:19:30.614Z,5.00
2017-12-05T06:22:04.879Z,5.00
2017-12-05T06:24:39.191Z,5.00
2017-12-05T06:27:13.360Z,5.00
2017-12-05T06:29:47.571Z,5.00
2017-12-05T06:32:21.772Z,5.00
2017-12-05T06:34:55.983Z,5.00
2017-12-05T06:37:30.223Z,5.10
2017-12-05T06:40:04.677Z,5.10
2017-12-05T06:42:38.917Z,5.10
2017-12-05T06:45:13.222Z,5.10
2017-12-05T06:47:47.405Z,5.10
2017-12-05T06:50:21.669Z,5.10
2017-12-05T06:52:55.998Z,5.10
2017-12-05T06:55:30.953Z,5.10
2017-12-05T06:58:05.131Z,5.10
2017-12-05T07:00:40.070Z,5.00
2017-12-05T07:03:14.072Z,5.00
2017-12-05T07:05:48.362Z,5.00
2017-12-05T07:08:23.444Z,5.10
2017-12-05T07:10:57.748Z,5.10
2017-12-05T07:13:32.080Z,5.10
2017-12-05T07:16:06.433Z,5.10
2017-12-05T07:18:40.575Z,5.10
2017-12-05T07:21:14.879Z,5.00
2017-12-05T07:23:49.873Z,5.00
2017-12-05T07:26:24.108Z,5.00
2017-12-05T07:28:58.441Z,5.10
2017-12-05T07:31:32.619Z,5.10
2017-12-05T07:34:06.914Z,5.10
2017-12-05T07:36:41.230Z,5.10
2017-12-05T07:39:16.260Z,5.10
2017-12-05T07:41:51.357Z,5.10
2017-12-05T07:44:25.567Z,5.10
2017-12-05T07:46:59.879Z,5.10
2017-12-05T07:49:34.207Z,5.10
2017-12-05T07:52:08.475Z,5.20
2017-12-05T07:54:42.627Z,5.10
2017-12-05T07:57:16.829Z,5.10
2017-12-05T07:59:52.024Z,5.10
2017-12-05T08:02:26.219Z,5.10
2017-12-05T08:05:00.331Z,5.10
2017-12-05T08:07:34.699Z,5.10
2017-12-05T08:10:08.755Z,5.10
2017-12-05T08:12:43.043Z,5.10
2017-12-05T08:15:17.305Z,5.10
2017-12-05T08:17:51.585Z,5.10
2017-12-05T08:20:25.836Z,5.10
2017-12-05T08:23:00.804Z,5.10
2017-12-05T08:25:35.640Z,5.00
2017-12-05T08:28:09.939Z,5.10
2017-12-05T08:30:44.924Z,5.00
2017-12-05T08:33:19.138Z,5.00
2017-12-05T08:35:53.456Z,4.90
2017-12-05T08:38:27.796Z,4.90
2017-12-05T08:41:01.967Z,4.90
2017-12-05T08:43:36.251Z,4.90
2017-12-05T08:46:10.582Z,4.90
2017-12-05T08:48:44.802Z,4.90
2017-12-05T08:51:18.943Z,4.80
2017-12-05T08:53:53.343Z,4.80
2017-12-05T08:56:27.756Z,4.80
2017-12-05T08:59:02.060Z,4.80
2017-12-05T09:01:36.266Z,4.80
2017-12-05T09:04:11.461Z,4.90
2017-12-05T09:06:46.036Z,4.80
2017-12-05T09:09:20.328Z,4.90
2017-12-05T09:11:54.518Z,4.90
2017-12-05T09:14:28.654Z,4.90
2017-12-05T09:17:02.821Z,4.90
2017-12-05T09:19:37.768Z,4.90
2017-12-05T09:22:11.987Z,4.90
2017-12-05T09:24:47.023Z,4.90
2017-12-05T09:27:21.271Z,4.90
2017-12-05T09:29:55.636Z,4.90
2017-12-05T09:32:29.839Z,4.90
2017-12-05T09:35:04.996Z,5.00
2017-12-05T09:37:39.050Z,4.90
2017-12-05T09:40:14.167Z,5.00
2017-12-05T09:42:48.373Z,5.00
2017-12-05T09:45:22.772Z,5.00
2017-12-05T09:47:56.972Z,5.00
2017-12-05T09:50:31.415Z,5.10
2017-12-05T09:53:05.622Z,5.10
2017-12-05T09:55:39.908Z,5.10
2017-12-05T09:58:14.082Z,5.10
2017-12-05T10:00:48.283Z,5.10
2017-12-05T10:03:23.432Z,5.10
2017-12-05T10:05:57.769Z,5.10
2017-12-05T10:08:31.986Z,5.10
2017-12-05T10:11:06.385Z,5.10
2017-12-05T10:13:40.593Z,5.10
2017-12-05T10:16:14.936Z,5.10
2017-12-05T10:18:50.013Z,5.00
2017-12-05T10:21:24.308Z,5.00
2017-12-05T10:23:58.554Z,5.00
2017-12-05T10:26:32.873Z,5.00
2017-12-05T10:29:07.077Z,5.10
2017-12-05T10:31:41.436Z,5.10
2017-12-05T10:34:15.624Z,5.10
2017-12-05T10:36:49.958Z,5.20
2017-12-05T10:39:24.382Z,5.20
2017-12-05T10:41:58.628Z,5.20
2017-12-05T10:44:33.670Z,5.30
2017-12-05T10:47:08.809Z,5.40
2017-12-05T10:49:43.017Z,5.30
2017-12-05T10:52:17.302Z,5.40
2017-12-05T10:54:51.558Z,5.30
2017-12-05T10:57:25.794Z,5.40
2017-12-05T11:00:00.062Z,5.30
2017-12-05T11:02:34.216Z,5.30
2017-12-05T11:05:08.509Z,5.30
2017-12-05T11:07:42.772Z,5.20
2017-12-05T11:10:16.944Z,5.20
2017-12-05T11:12:51.197Z,5.20
2017-12-05T11:15:25.515Z,5.20
2017-12-05T11:18:00.440Z,5.20
2017-12-05T11:20:34.645Z,5.30
2017-12-05T11:23:09.110Z,5.40
2017-12-05T11:25:43.337Z,5.20
2017-12-05T11:28:17.693Z,5.30
2017-12-05T11:30:51.784Z,5.20
2017-12-05T11:33:26.139Z,5.30
2017-12-05T11:36:01.387Z,5.40
2017-12-05T11:38:35.638Z,5.40
2017-12-05T11:41:09.800Z,5.40
2017-12-05T11:43:44.180Z,5.30
2017-12-05T11:46:18.498Z,5.30
2017-12-05T11:48:52.732Z,5.20
2017-12-05T11:51:27.789Z,5.30
2017-12-05T11:54:02.102Z,5.20
2017-12-05T11:56:37.228Z,5.40
2017-12-05T11:59:11.601Z,5.40
2017-12-05T12:01:45.853Z,5.40
2017-12-05T12:04:20.166Z,5.50
2017-12-05T12:06:54.380Z,5.50
2017-12-05T12:09:29.557Z,5.50
2017-12-05T12:12:03.881Z,5.50
2017-12-05T12:14:38.535Z,5.50
2017-12-05T12:17:12.628Z,5.50
2017-12-05T12:19:46.867Z,5.60
2017-12-05T12:22:21.917Z,5.60
2017-12-05T12:24:56.243Z,5.60
2017-12-05T12:27:30.493Z,5.60
2017-12-05T12:30:04.802Z,5.70
2017-12-05T12:32:39.965Z,5.60
2017-12-05T12:35:14.145Z,5.60
2017-12-05T12:37:49.177Z,5.50
2017-12-05T12:40:24.202Z,5.40
2017-12-05T12:42:58.395Z,5.40
2017-12-05T12:45:32.874Z,5.40
2017-12-05T12:48:07.805Z,5.40
2017-12-05T12:50:42.021Z,5.40
2017-12-05T12:53:16.247Z,5.40
2017-12-05T12:55:50.724Z,5.50
2017-12-05T12:58:25.044Z,5.40
2017-12-05T13:00:59.402Z,5.40
2017-12-05T13:03:33.781Z,5.40
2017-12-05T13:06:07.991Z,5.40
2017-12-05T13:08:42.180Z,5.40
2017-12-05T13:11:16.420Z,5.40
2017-12-05T13:13:50.528Z,5.40
2017-12-05T13:16:24.872Z,5.40
2017-12-05T13:18:59.098Z,5.40
2017-12-05T13:21:33.521Z,5.50
2017-12-05T13:24:08.517Z,5.50
2017-12-05T13:26:42.859Z,5.50
2017-12-05T13:29:16.924Z,5.60
2017-12-05T13:31:51.322Z,5.60
2017-12-05T13:34:25.503Z,5.70
2017-12-05T13:36:59.640Z,5.80
2017-12-05T13:39:34.020Z,5.80
2017-12-05T13:42:08.244Z,5.80
2017-12-05T13:44:42.541Z,5.70
2017-12-05T13:47:16.756Z,5.70
2017-12-05T13:49:51.067Z,5.70
2017-12-05T13:52:26.133Z,5.40
2017-12-05T13:55:00.428Z,5.40
2017-12-05T13:57:34.683Z,5.40
2017-12-05T14:00:08.935Z,5.50
2017-12-05T14:02:43.201Z,5.50
2017-12-05T14:05:17.505Z,5.60
2017-12-05T14:07:51.749Z,5.50
2017-12-05T14:10:26.011Z,5.50
2017-12-05T14:13:00.246Z,5.60
2017-12-05T14:15:34.337Z,5.60
2017-12-05T14:18:08.507Z,5.70
2017-12-05T14:20:42.759Z,5.70
2017-12-05T14:23:17.097Z,5.70
2017-12-05T14:25:51.311Z,5.70
2017-12-05T14:28:25.551Z,5.70
2017-12-05T14:30:59.879Z,5.70
2017-12-05T14:33:34.906Z,5.80
2017-12-05T14:36:09.129Z,5.80
2017-12-05T14:38:43.447Z,5.80
2017-12-05T14:41:17.598Z,5.80
2017-12-05T14:43:51.767Z,5.80
2017-12-05T14:46:25.960Z,5.80
2017-12-05T14:49:00.970Z,5.80
2017-12-05T14:51:35.165Z,5.70
2017-12-05T14:54:09.439Z,5.80
2017-12-05T14:56:43.797Z,5.80
2017-12-05T14:59:18.230Z,5.80
2017-12-05T15:01:52.407Z,5.80
2017-12-05T15:04:26.688Z,5.80
2017-12-05T15:07:00.983Z,5.70
2017-12-05T15:09:35.271Z,5.80
2017-12-05T15:12:09.484Z,5.80
2017-12-05T15:14:44.453Z,5.70
2017-12-05T15:17:18.626Z,5.70
2017-12-05T15:19:52.772Z,5.70
2017-12-05T15:22:27.077Z,5.70
2017-12-05T15:25:01.206Z,5.70
2017-12-05T15:27:35.517Z,5.70
2017-12-05T15:30:09.802Z,5.70
2017-12-05T15:32:44.120Z,5.70
2017-12-05T15:35:19.150Z,5.70
2017-12-05T15:37:53.356Z,5.60
2017-12-05T15:40:28.322Z,5.70
2017-12-05T15:43:02.461Z,5.70
2017-12-05T15:45:36.706Z,5.70
2017-12-05T15:48:10.944Z,5.70
2017-12-05T15:50:45.115Z,5.70
2017-12-05T15:53:19.421Z,5.70
2017-12-05T15:55:53.627Z,5.70
2017-12-05T15:58:27.854Z,5.70
2017-12-05T16:01:02.103Z,5.70
2017-12-05T16:03:36.290Z,5.60
2017-12-05T16:06:10.631Z,5.60
2017-12-05T16:08:44.868Z,5.50
2017-12-05T16:11:19.103Z,5.50
2017-12-05T16:13:53.401Z,5.40
2017-12-05T16:16:28.556Z,5.50
2017-12-05T16:19:02.702Z,5.40
2017-12-05T16:21:36.988Z,5.50
2017-12-05T16:24:11.193Z,5.50
2017-12-05T16:26:45.763Z,5.60
2017-12-05T16:29:20.190Z,5.60
2017-12-05T16:31:56.361Z,5.60
2017-12-05T16:34:30.679Z,5.60
2017-12-05T16:37:05.824Z,5.60
2017-12-05T16:39:39.963Z,5.60
2017-12-05T16:42:14.162Z,5.60
2017-12-05T16:44:48.381Z,5.60
2017-12-05T16:47:22.544Z,5.70
2017-12-05T16:49:56.697Z,5.70
2017-12-05T16:52:31.103Z,5.70
2017-12-05T16:55:05.228Z,5.80
2017-12-05T16:57:39.593Z,5.70
2017-12-05T17:00:13.681Z,5.60
2017-12-05T17:02:47.995Z,5.60
2017-12-05T17:05:22.359Z,5.60
2017-12-05T17:07:56.568Z,5.60
2017-12-05T17:10:31.558Z,5.70
2017-12-05T17:13:05.933Z,5.70
2017-12-05T17:15:40.309Z,5.70
2017-12-05T17:18:14.541Z,5.80
2017-12-05T17:20:48.734Z,5.70
2017-12-05T17:23:22.959Z,5.70
2017-12-05T17:25:57.210Z,5.80
2017-12-05T17:28:31.572Z,5.80
2017-12-05T17:31:05.789Z,5.80
2017-12-05T17:33:39.928Z,5.80
2017-12-05T17:36:14.163Z,5.70
2017-12-05T17:38:48.588Z,5.70
2017-12-05T17:41:22.909Z,5.70
2017-12-05T17:43:57.235Z,5.80
2017-12-05T17:46:31.461Z,5.80
2017-12-05T17:49:05.739Z,5.70
2017-12-05T17:51:39.974Z,5.70
2017-12-05T17:54:14.376Z,5.80
2017-12-05T17:56:48.634Z,5.90
2017-12-05T17:59:23.021Z,5.90
2017-12-05T18:01:57.212Z,5.90
2017-12-05T18:04:31.482Z,5.90
2017-12-05T18:07:05.922Z,5.90
2017-12-05T18:09:40.066Z,5.90
2017-12-05T18:12:14.382Z,5.80
2017-12-05T18:14:48.829Z,5.80
2017-12-05T18:17:23.079Z,5.80
2017-12-05T18:19:57.526Z,5.90
2017-12-05T18:22:31.800Z,5.90
2017-12-05T18:25:05.975Z,5.90
2017-12-05T18:27:40.128Z,5.90
2017-12-05T18:30:15.106Z,5.90
2017-12-05T18:32:49.406Z,5.90
2017-12-05T18:35:23.579Z,6.00
2017-12-05T18:37:57.736Z,5.90
2017-12-05T18:40:32.062Z,6.00
2017-12-05T18:43:06.277Z,6.00
2017-12-05T18:45:40.451Z,6.00
2017-12-05T18:48:14.649Z,6.00
2017-12-05T18:50:48.835Z,6.10
2017-12-05T18:53:22.999Z,6.10
2017-12-05T18:55:57.337Z,6.10
2017-12-05T18:58:31.680Z,6.10
2017-12-05T19:01:05.866Z,6.20
2017-12-05T19:03:40.099Z,6.10
2017-12-05T19:06:14.405Z,6.20
2017-12-05T19:08:48.520Z,6.10
2017-12-05T19:11:22.654Z,6.10
2017-12-05T19:13:56.833Z,6.10
2017-12-05T19:16:31.174Z,6.10
2017-12-05T19:19:06.200Z,6.10
2017-12-05T19:21:42.036Z,6.10
2017-12-05T19:24:16.943Z,6.00
2017-12-05T19:26:51.213Z,6.00
2017-12-05T19:29:25.327Z,6.00
2017-12-05T19:32:00.313Z,6.10
2017-12-05T19:34:34.539Z,6.10
2017-12-05T19:37:08.732Z,6.10
2017-12-05T19:39:42.950Z,6.10
2017-12-05T19:42:17.341Z,6.10
2017-12-05T19:44:52.359Z,6.10
2017-12-05T19:47:26.717Z,6.10
2017-12-05T19:50:01.634Z,6.10
2017-12-05T19:52:35.948Z,6.00
2017-12-05T19:55:10.169Z,6.10
2017-12-05T19:57:44.401Z,6.00
2017-12-05T20:00:18.610Z,6.00
2017-12-05T20:02:52.768Z,6.00
2017-12-05T20:05:28.762Z,5.90
2017-12-05T20:08:03.177Z,5.90
2017-12-05T20:10:37.398Z,6.00
2017-12-05T20:13:12.768Z,6.00
2017-12-05T20:15:47.108Z,6.00
2017-12-05T20:18:21.504Z,6.10
2017-12-05T20:20:55.871Z,6.00
2017-12-05T20:23:30.375Z,6.00
2017-12-05T20:26:04.712Z,6.10
2017-12-05T20:28:39.877Z,6.00
2017-12-05T20:31:15.107Z,6.00
2017-12-05T20:33:50.119Z,6.00
2017-12-05T20:36:25.046Z,6.00
2017-12-05T20:38:59.346Z,6.00
2017-12-05T20:41:33.636Z,6.00
2017-12-05T20:44:07.958Z,6.00
2017-12-05T20:46:43.104Z,6.00
2017-12-05T20:49:17.510Z,6.00
2017-12-05T20:51:51.679Z,6.00
2017-12-05T20:54:25.886Z,6.00
2017-12-05T20:57:00.032Z,6.00
2017-12-05T20:59:34.267Z,6.00
2017-12-05T21:02:08.684Z,5.90
2017-12-05T21:04:43.079Z,5.80
2017-12-05T21:07:18.216Z,5.80
2017-12-05T21:09:52.543Z,5.80
2017-12-05T21:12:27.515Z,5.80
2017-12-05T21:15:01.728Z,5.80
2017-12-05T21:17:36.051Z,5.90
2017-12-05T21:20:10.370Z,5.80
2017-12-05T21:22:44.581Z,5.80
2017-12-05T21:25:18.834Z,5.70
2017-12-05T21:27:53.993Z,5.70
2017-12-05T21:30:28.381Z,5.70
2017-12-05T21:33:02.518Z,5.70
2017-12-05T21:35:36.916Z,5.70
2017-12-05T21:38:11.086Z,5.60
2017-12-05T21:40:45.239Z,5.60
2017-12-05T21:43:20.119Z,5.60
2017-12-05T21:45:55.247Z,5.60
2017-12-05T21:48:30.170Z,5.50
2017-12-05T21:51:05.287Z,5.50
2017-12-05T21:53:39.552Z,5.50
2017-12-05T21:56:13.868Z,5.50
2017-12-05T21:58:48.130Z,5.60
2017-12-05T22:01:22.268Z,5.60
2017-12-05T22:03:56.609Z,5.50
2017-12-05T22:06:31.543Z,5.50
2017-12-05T22:09:06.478Z,5.50
2017-12-05T22:11:41.598Z,5.50
2017-12-05T22:14:15.738Z,5.60
2017-12-05T22:16:49.993Z,5.60
2017-12-05T22:19:25.074Z,5.50
2017-12-05T22:21:59.204Z,5.50
2017-12-05T22:24:33.474Z,5.40
2017-12-05T22:27:07.640Z,5.40
2017-12-05T22:29:41.766Z,5.40
2017-12-05T22:32:16.819Z,5.50
2017-12-05T22:34:51.118Z,5.50
2017-12-05T22:37:25.369Z,5.50
2017-12-05T22:39:59.684Z,5.50
2017-12-05T22:42:33.840Z,5.50
2017-12-05T22:45:07.966Z,5.50
2017-12-05T22:47:42.181Z,5.60
2017-12-05T22:50:16.393Z,5.60
2017-12-05T22:52:50.581Z,5.60
2017-12-05T22:55:25.543Z,5.60
2017-12-05T22:57:59.889Z,5.60
2017-12-05T23:00:34.798Z,5.60
2017-12-05T23:03:09.159Z,5.60
2017-12-05T23:05:43.337Z,5.60
2017-12-05T23:08:17.531Z,5.60
2017-12-05T23:10:51.808Z,5.60
2017-12-05T23:13:26.015Z,5.50
2017-12-05T23:16:00.230Z,5.50
2017-12-05T23:18:34.570Z,5.60
2017-12-05T23:21:08.927Z,5.60
2017-12-05T23:23:43.112Z,5.60
2017-12-05T23:26:18.906Z,5.50
2017-12-05T23:28:53.353Z,5.50
2017-12-05T23:31:28.354Z,5.60
2017-12-05T23:34:03.611Z,5.60
2017-12-05T23:36:37.910Z,5.70
2017-12-05T23:39:12.088Z,5.60
2017-12-05T23:41:47.140Z,5.60
2017-12-05T23:44:21.516Z,5.60
2017-12-05T23:46:55.707Z,5.60
2017-12-05T23:49:30.003Z,5.70
2017-12-05T23:52:04.237Z,5.70
2017-12-05T23:54:39.196Z,5.70
2017-12-05T23:57:13.365Z,5.70
2017-12-05T23:59:47.508Z,5.70
